< < Back
Terminal Aerodrome Forecast


Current Version              Previous Versions:   1  2  3  4  5  6  7  8  9  

Terminal Aerodrome Forecast

520
FTUS44 KMOB 030539
TAFPNS
TAF
KPNS 030539Z 0306/0406 28006KT P6SM FEW070 BKN250
     FM031800 18007KT P6SM VCSH SCT050 BKN150=



Latest METAR

229
SAUS70 KWBC 040700 RRF
MTRPNS
METAR KPNS 040653Z AUTO 29004KT 10SM CLR 24/23 A2994 RMK AO2 SLP141
T02440228 $


USA.gov is the U.S. government's official web portal to all federal, state and local government web resources and services.